Time;durP1;ratioP1;P1;durP2;ratioP2;P2;SDS_P1;SDS_P2;PMS_P1;PMS_P2;Temp;Humidity;BMP_temperature;BMP_pressure;BME280_temperature;BME280_humidity;BME280_pressure;Samples;Min_cycle;Max_cycle;Signal;HPM_P1;HPM_P2
2021/07/12 00:00:29;;;;;;;6.63;3.70;;;17.00;99.90;;;;;;5033914;28;20030;-75
2021/07/12 00:02:57;;;;;;;8.60;3.45;;;17.00;99.90;;;;;;5033671;28;20103;-75
2021/07/12 00:05:24;;;;;;;6.32;3.45;;;17.10;99.90;;;;;;5032192;28;20033;-75
2021/07/12 00:07:50;;;;;;;6.50;3.78;;;17.00;99.90;;;;;;5033534;28;20033;-75
2021/07/12 00:10:21;;;;;;;5.75;3.95;;;17.00;99.90;;;;;;5015214;28;20114;-75
2021/07/12 00:12:48;;;;;;;6.82;3.45;;;17.00;99.90;;;;;;5033050;28;20045;-75
2021/07/12 00:15:17;;;;;;;5.72;3.20;;;16.90;99.90;;;;;;5033524;28;20033;-76
2021/07/12 00:17:44;;;;;;;8.63;4.03;;;17.00;99.90;;;;;;5033488;28;20498;-75
2021/07/12 00:20:12;;;;;;;6.70;3.55;;;17.00;99.90;;;;;;5015365;28;20038;-75
2021/07/12 00:22:39;;;;;;;8.15;3.72;;;17.10;99.90;;;;;;5032248;28;20501;-76
2021/07/12 00:25:08;;;;;;;5.70;3.40;;;17.20;99.90;;;;;;5031746;28;20026;-76
2021/07/12 00:27:36;;;;;;;5.85;3.40;;;17.10;99.90;;;;;;5033209;28;20049;-76
2021/07/12 00:30:06;;;;;;;3.97;3.00;;;16.90;99.90;;;;;;5031722;28;20052;-76
2021/07/12 00:32:32;;;;;;;5.20;3.10;;;17.00;99.90;;;;;;5033157;28;20033;-74
2021/07/12 00:34:58;;;;;;;6.95;3.45;;;17.00;99.90;;;;;;5032726;28;20029;-74
2021/07/12 00:37:23;;;;;;;4.97;3.30;;;17.00;99.90;;;;;;5031588;28;20036;-75
2021/07/12 00:39:49;;;;;;;8.55;3.50;;;17.00;99.90;;;;;;5041009;28;20036;-75
2021/07/12 00:42:15;;;;;;;6.60;3.40;;;17.00;99.90;;;;;;5051472;28;20091;-75
2021/07/12 00:44:42;;;;;;;5.28;3.40;;;17.00;99.90;;;;;;5051655;28;20486;-74
2021/07/12 00:47:08;;;;;;;4.50;3.20;;;17.00;99.90;;;;;;5052662;28;20044;-74
2021/07/12 00:49:35;;;;;;;4.40;3.35;;;16.90;99.90;;;;;;5052549;28;20029;-75
2021/07/12 00:52:03;;;;;;;6.72;3.00;;;16.80;99.90;;;;;;5052704;28;20478;-75
2021/07/12 00:54:29;;;;;;;6.70;3.05;;;16.80;99.90;;;;;;5051195;28;20513;-75
2021/07/12 00:56:57;;;;;;;6.10;3.40;;;16.90;99.90;;;;;;5051301;28;20032;-75
2021/07/12 00:59:23;;;;;;;6.50;2.95;;;16.90;99.90;;;;;;5052793;28;20119;-75
2021/07/12 01:01:49;;;;;;;6.57;3.25;;;16.80;99.90;;;;;;5052721;28;20072;-75
2021/07/12 01:04:15;;;;;;;5.03;3.28;;;16.80;99.90;;;;;;5052589;28;20033;-75
2021/07/12 01:06:41;;;;;;;4.38;3.50;;;16.90;99.90;;;;;;5052380;28;20037;-75
2021/07/12 01:09:06;;;;;;;6.45;3.15;;;16.80;99.90;;;;;;5049723;28;20028;-75
2021/07/12 01:12:07;;;;;;;7.40;2.95;;;16.80;99.90;;;;;;5032264;28;20050;-75
2021/07/12 01:15:02;;;;;;;8.07;3.22;;;16.70;99.90;;;;;;5028488;28;20041;-75
2021/07/12 01:17:53;;;;;;;7.22;3.25;;;16.70;99.90;;;;;;5031877;28;20041;-75
2021/07/12 01:21:17;;;;;;;5.03;3.45;;;16.70;99.90;;;;;;5032261;28;20038;-75
2021/07/12 01:24:11;;;;;;;5.15;3.30;;;16.70;99.90;;;;;;5032668;28;20038;-75
2021/07/12 01:27:34;;;;;;;6.05;3.00;;;16.60;99.90;;;;;;5032158;28;20029;-75
2021/07/12 01:30:21;;;;;;;5.97;3.40;;;16.70;99.90;;;;;;5032418;28;20116;-75
2021/07/12 01:33:34;;;;;;;5.47;3.15;;;16.70;99.90;;;;;;5031218;28;20040;-75
2021/07/12 01:36:24;;;;;;;4.97;3.17;;;16.50;99.90;;;;;;5030932;28;20022;-75
2021/07/12 01:39:05;;;;;;;5.40;4.10;;;16.50;99.90;;;;;;5032061;28;20041;-75
2021/07/12 01:41:39;;;;;;;6.63;3.47;;;16.20;99.90;;;;;;5034649;28;20121;-75
2021/07/12 01:44:20;;;;;;;6.35;3.88;;;16.30;99.90;;;;;;5050625;28;20052;-75
2021/07/12 01:47:23;;;;;;;5.43;3.78;;;16.40;99.90;;;;;;5034387;28;20466;-75
2021/07/12 01:50:04;;;;;;;5.95;3.17;;;16.40;99.90;;;;;;5049373;28;20041;-75
2021/07/12 01:53:17;;;;;;;5.50;3.50;;;16.40;99.90;;;;;;5050948;28;20387;-75
2021/07/12 01:56:00;;;;;;;5.47;3.50;;;16.50;99.90;;;;;;5050782;28;20059;-75
2021/07/12 01:58:41;;;;;;;5.40;3.17;;;16.50;99.90;;;;;;5050672;28;20371;-75
2021/07/12 02:01:10;;;;;;;6.95;3.10;;;16.40;99.90;;;;;;5051838;28;20505;-75
2021/07/12 02:03:37;;;;;;;7.18;2.70;;;16.50;99.90;;;;;;5050817;28;20033;-74
2021/07/12 02:06:08;;;;;;;7.35;3.08;;;16.50;99.90;;;;;;5050454;28;20036;-74
2021/07/12 02:08:46;;;;;;;8.50;4.18;;;16.40;99.90;;;;;;5050782;28;20032;-75
2021/07/12 02:11:16;;;;;;;6.88;3.65;;;16.20;99.90;;;;;;5030823;28;20058;-74
2021/07/12 02:13:50;;;;;;;6.28;3.20;;;16.00;99.90;;;;;;5031856;28;20075;-74
2021/07/12 02:16:19;;;;;;;6.22;3.85;;;16.10;99.90;;;;;;5030435;28;20033;-74
2021/07/12 02:18:47;;;;;;;7.18;3.58;;;16.20;99.90;;;;;;5030416;28;20034;-76
2021/07/12 02:21:16;;;;;;;6.30;4.18;;;16.10;99.90;;;;;;5030237;28;20029;-74
2021/07/12 02:23:42;;;;;;;6.47;3.30;;;16.10;99.90;;;;;;5030682;28;20045;-75
2021/07/12 02:26:13;;;;;;;6.47;3.78;;;16.10;99.90;;;;;;5031625;28;20095;-75
2021/07/12 02:28:44;;;;;;;7.28;3.72;;;16.10;99.90;;;;;;5033561;28;20575;-75
2021/07/12 02:31:12;;;;;;;6.47;3.85;;;16.10;99.90;;;;;;5034057;28;20044;-75
2021/07/12 02:33:40;;;;;;;7.20;3.53;;;16.20;99.90;;;;;;5033907;28;20041;-75
2021/07/12 02:36:06;;;;;;;5.28;4.00;;;16.30;99.90;;;;;;5017646;28;20033;-75
2021/07/12 02:38:36;;;;;;;4.90;3.40;;;16.30;99.90;;;;;;5034082;28;20037;-74
2021/07/12 02:41:04;;;;;;;7.60;3.30;;;16.30;99.90;;;;;;5030075;28;20113;-74
2021/07/12 02:43:32;;;;;;;7.13;3.42;;;16.30;99.90;;;;;;5015438;28;20034;-76
2021/07/12 02:45:58;;;;;;;6.40;3.33;;;16.40;99.90;;;;;;4997882;28;20057;-75
2021/07/12 02:48:24;;;;;;;4.47;3.20;;;16.40;99.90;;;;;;5013851;28;20033;-75
2021/07/12 02:50:53;;;;;;;5.60;3.50;;;16.40;99.90;;;;;;5013878;28;20391;-75
2021/07/12 02:53:32;;;;;;;7.20;3.42;;;16.40;99.90;;;;;;5013943;28;20030;-75
2021/07/12 02:55:58;;;;;;;6.18;3.53;;;16.30;99.90;;;;;;5014802;28;20034;-74
2021/07/12 02:58:24;;;;;;;5.18;3.30;;;16.30;99.90;;;;;;5015248;28;20062;-75
2021/07/12 03:00:51;;;;;;;6.53;3.42;;;16.20;99.90;;;;;;4997579;28;20036;-75
2021/07/12 03:03:17;;;;;;;6.82;3.55;;;16.30;99.90;;;;;;5013668;28;20026;-75
2021/07/12 03:05:43;;;;;;;8.15;3.95;;;16.20;99.90;;;;;;5014917;28;20091;-75
2021/07/12 03:08:19;;;;;;;4.95;3.33;;;16.20;99.90;;;;;;5014017;28;20042;-74
2021/07/12 03:10:52;;;;;;;5.18;3.97;;;16.30;99.90;;;;;;5028470;28;20641;-75
2021/07/12 03:13:35;;;;;;;7.57;4.47;;;16.30;99.90;;;;;;5053005;28;20090;-75
2021/07/12 03:16:01;;;;;;;7.55;4.28;;;16.20;99.90;;;;;;5054229;28;20029;-74
2021/07/12 03:18:31;;;;;;;6.22;3.95;;;16.10;99.90;;;;;;5053352;28;20033;-74
2021/07/12 03:21:01;;;;;;;6.85;3.63;;;16.20;99.90;;;;;;5053140;28;20044;-75
2021/07/12 03:23:32;;;;;;;11.03;4.70;;;16.20;99.90;;;;;;5053095;28;20078;-75
2021/07/12 03:26:01;;;;;;;7.93;3.95;;;16.20;99.90;;;;;;5053383;28;20367;-74
2021/07/12 03:28:27;;;;;;;11.10;4.90;;;16.20;99.90;;;;;;5054118;28;20048;-74
2021/07/12 03:30:54;;;;;;;9.63;3.60;;;16.10;99.90;;;;;;5052877;28;20040;-75
2021/07/12 03:33:22;;;;;;;6.00;3.47;;;16.10;99.90;;;;;;5054018;28;20121;-75
2021/07/12 03:35:49;;;;;;;4.80;3.33;;;16.10;99.90;;;;;;5053061;28;20227;-75
2021/07/12 03:38:18;;;;;;;7.55;3.67;;;16.00;99.90;;;;;;5052547;28;20465;-75
2021/07/12 03:40:45;;;;;;;4.70;3.53;;;15.90;99.90;;;;;;5036868;28;20033;-75
2021/07/12 03:43:14;;;;;;;7.22;3.95;;;15.90;99.90;;;;;;5033856;28;20087;-75
2021/07/12 03:45:42;;;;;;;6.78;3.80;;;15.90;99.90;;;;;;5032955;28;20034;-75
2021/07/12 03:48:09;;;;;;;8.32;4.28;;;15.90;99.90;;;;;;5033726;28;20033;-75
2021/07/12 03:50:36;;;;;;;7.10;3.85;;;15.90;99.90;;;;;;5032601;28;20029;-75
2021/07/12 03:53:03;;;;;;;9.65;3.38;;;15.90;99.90;;;;;;5016298;28;20030;-74
2021/07/12 03:55:31;;;;;;;6.38;3.95;;;15.90;99.90;;;;;;5033866;28;20044;-74
2021/07/12 03:58:00;;;;;;;7.22;3.10;;;15.90;99.90;;;;;;5033552;28;20026;-75
2021/07/12 04:00:29;;;;;;;7.82;3.75;;;15.90;99.90;;;;;;5032598;28;20040;-74
2021/07/12 04:02:55;;;;;;;5.82;3.95;;;15.80;99.90;;;;;;5033592;28;20037;-75
2021/07/12 04:05:27;;;;;;;7.57;3.92;;;15.60;99.90;;;;;;5032266;28;20033;-75
2021/07/12 04:07:56;;;;;;;7.28;3.80;;;15.60;99.90;;;;;;5016814;28;20071;-75
2021/07/12 04:10:22;;;;;;;8.80;3.95;;;15.70;99.90;;;;;;5048357;28;20042;-74
2021/07/12 04:12:48;;;;;;;6.05;4.03;;;15.50;99.90;;;;;;5033188;28;20053;-74
2021/07/12 04:15:16;;;;;;;5.68;3.90;;;15.50;99.90;;;;;;5032146;28;20029;-74
2021/07/12 04:17:43;;;;;;;5.78;4.35;;;15.50;99.90;;;;;;5015785;28;20118;-74
2021/07/12 04:20:10;;;;;;;4.95;4.00;;;15.50;99.90;;;;;;5033577;28;20076;-74
2021/07/12 04:22:36;;;;;;;7.38;4.57;;;15.50;99.90;;;;;;5032358;28;20025;-75
2021/07/12 04:25:05;;;;;;;10.88;4.50;;;15.50;99.90;;;;;;5032959;28;20033;-74
2021/07/12 04:27:31;;;;;;;6.88;5.05;;;15.50;99.90;;;;;;5032219;28;20036;-74
2021/07/12 04:29:57;;;;;;;6.88;5.15;;;15.40;99.90;;;;;;5031770;28;20172;-74
2021/07/12 04:32:23;;;;;;;9.52;4.70;;;15.50;99.90;;;;;;5033186;28;20280;-75
2021/07/12 04:34:49;;;;;;;8.95;4.93;;;15.70;99.90;;;;;;5033458;28;20052;-74
2021/07/12 04:37:15;;;;;;;9.77;4.85;;;15.90;99.90;;;;;;5033364;28;20025;-74
2021/07/12 04:39:41;;;;;;;7.68;4.50;;;16.00;99.90;;;;;;5038884;28;20028;-74
2021/07/12 04:42:07;;;;;;;9.70;5.97;;;16.10;99.90;;;;;;5053570;28;20035;-75
2021/07/12 04:44:33;;;;;;;10.95;7.55;;;16.30;99.90;;;;;;5052825;28;20140;-73
2021/07/12 04:47:00;;;;;;;8.35;5.50;;;16.40;99.90;;;;;;5052172;28;20025;-74
2021/07/12 04:49:27;;;;;;;9.23;6.15;;;16.50;99.90;;;;;;5052398;28;20499;-74
2021/07/12 04:51:53;;;;;;;9.90;5.90;;;16.60;99.90;;;;;;5051928;28;20041;-73
2021/07/12 04:54:19;;;;;;;11.15;7.57;;;16.80;99.90;;;;;;5052572;28;20025;-73
2021/07/12 04:56:45;;;;;;;25.48;15.32;;;16.80;99.90;;;;;;5053133;28;20021;-74
2021/07/12 04:59:11;;;;;;;12.85;6.47;;;17.00;99.90;;;;;;5052180;28;20047;-72
2021/07/12 05:01:37;;;;;;;9.80;6.25;;;16.90;99.90;;;;;;5033338;28;20029;-72
2021/07/12 05:04:05;;;;;;;8.32;5.88;;;16.80;99.90;;;;;;5028222;28;20060;-72
2021/07/12 05:06:32;;;;;;;9.18;5.35;;;16.90;99.90;;;;;;5016417;28;20080;-72
2021/07/12 05:08:58;;;;;;;10.68;5.25;;;16.60;99.90;;;;;;5035223;28;20053;-71
2021/07/12 05:11:26;;;;;;;20.20;11.63;;;16.90;99.90;;;;;;5050818;28;20486;-70
2021/07/12 05:13:52;;;;;;;8.93;6.53;;;17.00;99.90;;;;;;5050970;28;20466;-72
2021/07/12 05:16:22;;;;;;;7.85;4.78;;;17.20;99.90;;;;;;5051920;28;20029;-74
2021/07/12 05:18:48;;;;;;;11.60;4.80;;;17.30;99.90;;;;;;5051049;28;20064;-79
2021/07/12 05:21:14;;;;;;;8.15;5.00;;;17.50;99.90;;;;;;5050986;28;20036;-74
2021/07/12 05:23:41;;;;;;;8.68;4.53;;;17.50;99.90;;;;;;5053414;28;20078;-78
2021/07/12 05:26:07;;;;;;;11.50;5.82;;;17.50;99.90;;;;;;5051727;28;20032;-78
2021/07/12 05:28:34;;;;;;;7.50;4.65;;;17.50;99.90;;;;;;5050863;28;20033;-77
2021/07/12 05:31:00;;;;;;;9.60;5.10;;;17.70;99.90;;;;;;5020761;28;20034;-78
2021/07/12 05:33:26;;;;;;;10.70;4.00;;;17.90;99.90;;;;;;5013989;28;20034;-78
2021/07/12 05:35:52;;;;;;;6.60;4.55;;;17.90;99.90;;;;;;5020523;28;20039;-79
2021/07/12 05:38:17;;;;;;;10.15;5.75;;;18.00;99.90;;;;;;5018807;28;20040;-79
2021/07/12 05:40:43;;;;;;;8.23;4.25;;;18.10;99.90;;;;;;5027850;28;20505;-75
2021/07/12 05:43:09;;;;;;;6.45;4.03;;;18.10;99.90;;;;;;5031946;28;20104;-79
2021/07/12 05:45:35;;;;;;;7.10;4.45;;;18.30;99.90;;;;;;5031814;28;20468;-77
2021/07/12 05:48:02;;;;;;;8.60;4.13;;;18.20;99.90;;;;;;5032018;28;20541;-73
2021/07/12 05:50:27;;;;;;;5.85;3.72;;;18.40;99.90;;;;;;5032066;28;20021;-76
2021/07/12 05:52:56;;;;;;;7.40;3.88;;;18.30;99.90;;;;;;5031369;28;20092;-75
2021/07/12 05:55:22;;;;;;;8.70;3.50;;;18.50;99.90;;;;;;5014319;28;20424;-75
2021/07/12 05:57:48;;;;;;;7.10;4.70;;;18.70;99.90;;;;;;5031808;28;20036;-75
2021/07/12 06:00:14;;;;;;;6.70;3.10;;;18.70;99.90;;;;;;5035979;28;20045;-73
2021/07/12 06:02:41;;;;;;;8.43;4.10;;;18.90;99.90;;;;;;5053579;28;20029;-75
2021/07/12 06:05:09;;;;;;;8.48;3.42;;;19.10;99.90;;;;;;5054641;28;20044;-74
2021/07/12 06:07:35;;;;;;;4.38;3.10;;;19.00;99.90;;;;;;5054368;28;20100;-74
2021/07/12 06:10:04;;;;;;;4.80;3.05;;;19.20;99.90;;;;;;5055638;28;20112;-74
2021/07/12 06:12:30;;;;;;;8.52;3.90;;;19.40;99.90;;;;;;5055295;28;20053;-75
2021/07/12 06:14:56;;;;;;;9.57;3.83;;;19.50;99.90;;;;;;5055358;28;20033;-74
2021/07/12 06:17:21;;;;;;;9.77;3.83;;;19.60;99.90;;;;;;5056254;28;20058;-90
2021/07/12 06:19:47;;;;;;;7.43;3.45;;;19.70;99.90;;;;;;5056055;28;20064;-74
2021/07/12 06:22:13;;;;;;;6.47;3.00;;;19.50;99.90;;;;;;5055265;28;20029;-76
2021/07/12 06:24:39;;;;;;;5.97;4.05;;;19.20;99.90;;;;;;5055734;28;20034;-77
2021/07/12 06:27:05;;;;;;;14.05;4.40;;;19.10;99.90;;;;;;5055299;28;20029;-77
2021/07/12 06:29:31;;;;;;;8.48;4.38;;;19.30;99.90;;;;;;5053767;28;20098;-77
2021/07/12 06:31:56;;;;;;;9.30;4.25;;;19.50;99.90;;;;;;5036734;28;20033;-76
2021/07/12 06:34:23;;;;;;;45.08;25.55;;;19.60;99.90;;;;;;5035192;28;20038;-70
2021/07/12 06:36:49;;;;;;;9.43;4.97;;;19.80;99.90;;;;;;5034914;28;20040;-72
2021/07/12 06:39:17;;;;;;;10.85;4.30;;;19.60;99.90;;;;;;5035509;28;20037;-72
2021/07/12 06:41:43;;;;;;;11.25;4.38;;;19.70;99.90;;;;;;5034156;28;20493;-72
2021/07/12 06:44:09;;;;;;;17.92;4.80;;;19.60;99.90;;;;;;5035371;28;20037;-72
2021/07/12 06:46:35;;;;;;;16.45;4.72;;;19.70;99.90;;;;;;5035111;28;20359;-72
2021/07/12 06:49:01;;;;;;;7.38;3.90;;;20.00;99.90;;;;;;5035297;28;20033;-72
2021/07/12 06:51:26;;;;;;;8.27;4.15;;;20.10;99.90;;;;;;5035139;28;20029;-68
2021/07/12 06:53:52;;;;;;;7.53;2.97;;;20.10;99.90;;;;;;5035202;28;20124;-72
2021/07/12 06:56:18;;;;;;;6.82;3.20;;;20.50;99.90;;;;;;5035015;28;20026;-71
2021/07/12 06:58:44;;;;;;;3.90;2.70;;;20.70;99.90;;;;;;5035190;28;20029;-74
2021/07/12 07:01:09;;;;;;;5.07;3.03;;;20.70;99.90;;;;;;5046722;28;20033;-70
2021/07/12 07:03:35;;;;;;;3.45;2.50;;;20.90;99.90;;;;;;5054770;28;20466;-71
2021/07/12 07:06:01;;;;;;;5.40;3.17;;;20.50;99.90;;;;;;5054991;28;20067;-68
2021/07/12 07:08:27;;;;;;;4.53;2.67;;;20.50;99.90;;;;;;5054427;28;20025;-69
2021/07/12 07:10:53;;;;;;;4.80;2.97;;;20.80;99.90;;;;;;5054400;28;20044;-71
2021/07/12 07:13:19;;;;;;;4.90;2.70;;;21.20;99.90;;;;;;5053921;28;20051;-71
2021/07/12 07:15:45;;;;;;;7.72;2.70;;;21.30;99.90;;;;;;5049927;28;20025;-69
2021/07/12 07:18:11;;;;;;;7.10;2.88;;;21.00;99.90;;;;;;5054583;28;20063;-65
2021/07/12 07:20:37;;;;;;;5.72;2.75;;;20.80;99.90;;;;;;5054504;28;20111;-65
2021/07/12 07:23:04;;;;;;;4.45;2.63;;;20.90;99.90;;;;;;5054471;28;20021;-69
2021/07/12 07:25:30;;;;;;;7.30;2.42;;;21.20;99.90;;;;;;5054308;28;20044;-70
2021/07/12 07:27:56;;;;;;;4.00;2.38;;;21.40;99.90;;;;;;5054387;28;20047;-69
2021/07/12 07:30:22;;;;;;;5.43;2.60;;;21.40;99.90;;;;;;5048906;28;20040;-71
2021/07/12 07:32:48;;;;;;;7.28;2.38;;;21.00;99.90;;;;;;5034415;28;20043;-71
2021/07/12 07:35:16;;;;;;;5.45;2.70;;;21.10;99.90;;;;;;5033820;28;20385;-71
2021/07/12 07:37:43;;;;;;;4.95;2.65;;;21.30;99.90;;;;;;5022136;28;20406;-72
2021/07/12 07:40:10;;;;;;;4.55;2.50;;;21.60;99.90;;;;;;5025298;28;20115;-71
2021/07/12 07:42:36;;;;;;;3.58;2.50;;;21.80;99.90;;;;;;5025412;28;20033;-72
2021/07/12 07:45:05;;;;;;;5.32;2.65;;;22.10;99.90;;;;;;5024755;28;20029;-74
2021/07/12 07:47:31;;;;;;;6.32;2.80;;;22.10;99.90;;;;;;5021922;28;20430;-70
2021/07/12 07:49:57;;;;;;;4.00;2.33;;;22.40;99.90;;;;;;5014401;28;20041;-69
2021/07/12 07:52:23;;;;;;;8.15;2.50;;;22.70;99.90;;;;;;5014155;28;20030;-71
2021/07/12 07:54:50;;;;;;;3.75;2.30;;;23.00;99.90;;;;;;5013951;28;20088;-72
2021/07/12 07:57:16;;;;;;;5.00;2.47;;;23.20;99.90;;;;;;5012908;28;20045;-73
2021/07/12 07:59:43;;;;;;;6.30;2.08;;;23.30;99.90;;;;;;5012762;28;20037;-73
2021/07/12 08:02:09;;;;;;;4.47;2.10;;;23.20;99.90;;;;;;5053575;28;20033;-72
2021/07/12 08:04:34;;;;;;;3.83;1.80;;;22.90;99.90;;;;;;5052337;28;20033;-72
2021/07/12 08:07:00;;;;;;;2.95;1.70;;;22.90;99.90;;;;;;5053246;28;20489;-73
2021/07/12 08:09:26;;;;;;;2.58;1.63;;;23.10;99.90;;;;;;5053054;28;20037;-76
2021/07/12 08:11:52;;;;;;;6.20;1.80;;;23.10;99.90;;;;;;5052998;28;20390;-78
2021/07/12 08:14:19;;;;;;;3.00;1.90;;;23.20;99.90;;;;;;5051659;28;20075;-73
2021/07/12 08:16:46;;;;;;;5.10;1.85;;;23.40;99.90;;;;;;5053342;28;20029;-80
2021/07/12 08:19:12;;;;;;;5.85;2.00;;;23.40;99.90;;;;;;5051780;28;20041;-77
2021/07/12 08:21:38;;;;;;;7.97;2.28;;;23.20;99.90;;;;;;5053007;28;20068;-77
2021/07/12 08:24:04;;;;;;;3.45;1.90;;;23.30;99.90;;;;;;5053054;28;20057;-78
2021/07/12 08:26:30;;;;;;;3.47;1.77;;;23.50;99.90;;;;;;5053062;28;20033;-78
2021/07/12 08:28:56;;;;;;;2.85;2.00;;;23.80;99.90;;;;;;5053018;28;20036;-78
2021/07/12 08:31:21;;;;;;;3.03;1.42;;;23.50;99.90;;;;;;5038826;28;20073;-78
2021/07/12 08:33:47;;;;;;;2.28;1.25;;;23.90;99.90;;;;;;5015082;28;20037;-78
2021/07/12 08:36:13;;;;;;;3.10;1.50;;;23.90;99.90;;;;;;5032729;28;20025;-78
2021/07/12 08:38:40;;;;;;;2.15;1.10;;;24.30;99.90;;;;;;5032968;28;20053;-79
2021/07/12 08:41:06;;;;;;;2.78;1.45;;;24.30;99.90;;;;;;5031999;28;20026;-79
2021/07/12 08:43:32;;;;;;;2.25;1.20;;;24.20;99.90;;;;;;5032849;28;20034;-78
2021/07/12 08:45:57;;;;;;;3.22;1.23;;;24.20;99.90;;;;;;5031599;28;20067;-77
2021/07/12 08:48:23;;;;;;;2.50;1.30;;;24.40;99.90;;;;;;5032932;28;20044;-78
2021/07/12 08:50:49;;;;;;;2.50;1.08;;;24.40;99.90;;;;;;5031885;28;20045;-78
2021/07/12 08:53:15;;;;;;;1.98;1.10;;;24.30;99.90;;;;;;5032912;28;20033;-78
2021/07/12 08:55:44;;;;;;;3.70;1.15;;;24.00;99.90;;;;;;5026821;28;20033;-76
2021/07/12 08:58:27;;;;;;;2.53;1.00;;;23.80;99.90;;;;;;5011604;28;20064;-69
2021/07/12 09:01:05;;;;;;;2.13;1.00;;;23.80;99.90;;;;;;5028531;28;20037;-73
2021/07/12 09:03:40;;;;;;;2.90;1.20;;;23.80;99.90;;;;;;5032047;28;20657;-71
2021/07/12 09:06:11;;;;;;;1.58;1.02;;;24.00;99.90;;;;;;5031680;28;20107;-72
2021/07/12 09:08:45;;;;;;;2.50;1.05;;;24.30;99.90;;;;;;5032629;28;20033;-69
2021/07/12 09:11:24;;;;;;;2.70;1.20;;;24.20;99.90;;;;;;5032681;28;20423;-69
2021/07/12 09:13:53;;;;;;;2.88;1.58;;;24.30;99.90;;;;;;5032550;28;20171;-70
2021/07/12 09:16:33;;;;;;;2.05;1.20;;;24.70;99.90;;;;;;5032554;28;20095;-71
2021/07/12 09:19:18;;;;;;;2.58;1.25;;;24.90;99.90;;;;;;5031492;28;20112;-75
2021/07/12 09:21:50;;;;;;;2.40;1.00;;;24.70;99.90;;;;;;5012483;28;20038;-73
2021/07/12 09:24:45;;;;;;;3.13;1.10;;;24.50;99.90;;;;;;5029022;28;20030;-74
2021/07/12 09:27:23;;;;;;;2.08;1.08;;;24.70;99.80;;;;;;5030968;28;20381;-73
2021/07/12 09:29:51;;;;;;;3.42;0.90;;;25.00;99.30;;;;;;5031284;28;20056;-76
2021/07/12 09:32:23;;;;;;;2.95;1.00;;;25.00;99.30;;;;;;5032330;28;20108;-77
2021/07/12 09:34:57;;;;;;;1.13;0.70;;;24.90;99.50;;;;;;5032318;28;20068;-72
2021/07/12 09:37:25;;;;;;;1.42;0.90;;;24.60;99.50;;;;;;5031767;28;20117;-72
2021/07/12 09:39:54;;;;;;;1.45;0.95;;;24.60;99.10;;;;;;5032157;28;20080;-74
2021/07/12 09:42:24;;;;;;;1.35;1.08;;;24.70;99.20;;;;;;5032243;28;20029;-75
2021/07/12 09:44:57;;;;;;;1.67;1.08;;;24.90;99.10;;;;;;5032185;28;20030;-72
2021/07/12 09:47:36;;;;;;;1.23;0.75;;;24.50;99.00;;;;;;5030882;28;20030;-75
2021/07/12 09:50:05;;;;;;;1.77;1.00;;;24.40;99.50;;;;;;5031055;28;20057;-73
2021/07/12 09:52:38;;;;;;;2.00;1.10;;;24.40;99.60;;;;;;5032024;28;20042;-73
2021/07/12 09:55:05;;;;;;;2.65;1.10;;;24.60;99.50;;;;;;5031537;28;20033;-75
2021/07/12 09:57:31;;;;;;;1.27;0.80;;;24.70;98.80;;;;;;5030424;28;20082;-72
2021/07/12 10:00:04;;;;;;;4.18;0.95;;;24.80;99.00;;;;;;5031803;28;20426;-73
2021/07/12 10:02:34;;;;;;;2.00;0.80;;;24.70;99.30;;;;;;5032027;28;20452;-73
2021/07/12 10:05:08;;;;;;;1.70;1.10;;;24.70;98.90;;;;;;5030479;28;20128;-72
2021/07/12 10:07:35;;;;;;;1.20;0.70;;;24.90;99.70;;;;;;5031690;28;20320;-71
2021/07/12 10:10:13;;;;;;;1.90;1.10;;;25.10;99.40;;;;;;5031934;28;20029;-72
2021/07/12 10:12:46;;;;;;;1.52;0.75;;;25.50;98.50;;;;;;5030378;28;20402;-70
2021/07/12 10:15:14;;;;;;;1.08;0.80;;;25.40;98.40;;;;;;5031584;28;20034;-71
2021/07/12 10:17:45;;;;;;;1.88;0.90;;;25.50;99.60;;;;;;5031671;28;20549;-71
2021/07/12 10:20:14;;;;;;;1.40;0.90;;;25.60;99.40;;;;;;5031714;28;20386;-71
2021/07/12 10:22:42;;;;;;;1.92;0.90;;;26.00;99.20;;;;;;5030473;28;20479;-71
2021/07/12 10:25:14;;;;;;;1.60;0.85;;;26.30;97.50;;;;;;5030422;28;20095;-72
2021/07/12 10:28:07;;;;;;;2.03;1.30;;;26.30;97.00;;;;;;5031783;28;20413;-71
2021/07/12 10:30:47;;;;;;;1.38;0.70;;;26.00;97.30;;;;;;5031086;28;20037;-72
2021/07/12 10:33:18;;;;;;;1.55;0.75;;;26.30;97.50;;;;;;5031527;28;20418;-72
2021/07/12 10:35:54;;;;;;;1.70;0.60;;;26.60;96.80;;;;;;5031310;28;20478;-70
2021/07/12 10:38:40;;;;;;;5.30;1.00;;;26.60;96.80;;;;;;5031558;28;20126;-71
2021/07/12 10:41:23;;;;;;;4.72;2.38;;;26.00;96.80;;;;;;5031361;28;20482;-71
2021/07/12 10:43:54;;;;;;;2.05;0.77;;;25.80;97.00;;;;;;5031427;28;20069;-72
2021/07/12 10:46:32;;;;;;;1.95;1.08;;;25.70;97.40;;;;;;5031628;28;20030;-71
2021/07/12 10:49:38;;;;;;;1.70;0.80;;;25.90;98.20;;;;;;5032119;28;20120;-71
2021/07/12 10:52:05;;;;;;;1.65;0.70;;;26.00;96.80;;;;;;5035237;28;20521;-71
2021/07/12 10:54:58;;;;;;;1.85;0.60;;;25.80;97.20;;;;;;5034832;28;20041;-71
2021/07/12 10:57:24;;;;;;;1.10;0.70;;;25.70;98.10;;;;;;5034834;28;20037;-72
2021/07/12 11:00:08;;;;;;;2.35;0.90;;;25.70;97.90;;;;;;5034459;28;20033;-71
2021/07/12 11:02:34;;;;;;;1.63;0.85;;;25.50;97.50;;;;;;5035025;28;20030;-72
2021/07/12 11:05:15;;;;;;;2.10;0.80;;;25.70;97.30;;;;;;5034549;28;20060;-72
2021/07/12 11:07:50;;;;;;;0.95;0.73;;;25.70;96.90;;;;;;5033215;28;20025;-72
2021/07/12 11:10:26;;;;;;;1.25;0.80;;;25.70;97.70;;;;;;5032848;28;20478;-72
2021/07/12 11:13:02;;;;;;;1.67;0.70;;;25.90;97.60;;;;;;5034176;28;20049;-71
2021/07/12 11:15:33;;;;;;;2.28;0.65;;;26.00;96.30;;;;;;5032867;28;20387;-71
2021/07/12 11:18:04;;;;;;;1.90;1.00;;;26.00;96.90;;;;;;5016912;28;20029;-71
2021/07/12 11:20:44;;;;;;;1.65;0.90;;;26.20;96.50;;;;;;5034161;28;20037;-72
2021/07/12 11:23:45;;;;;;;1.35;0.75;;;26.20;98.00;;;;;;5034444;28;20045;-72
2021/07/12 11:26:29;;;;;;;3.88;1.00;;;26.30;96.40;;;;;;5034272;28;20029;-72
2021/07/12 11:29:01;;;;;;;1.75;0.77;;;26.40;96.60;;;;;;5034823;28;20482;-72
2021/07/12 11:31:55;;;;;;;1.50;0.90;;;26.60;96.20;;;;;;5034072;28;20080;-72
2021/07/12 11:34:32;;;;;;;2.25;1.08;;;26.50;96.50;;;;;;5034068;28;20514;-71
2021/07/12 11:37:07;;;;;;;5.85;1.10;;;26.80;97.00;;;;;;5034280;28;20037;-72
2021/07/12 11:39:37;;;;;;;2.67;1.00;;;26.80;96.50;;;;;;5034203;28;20446;-71
2021/07/12 11:42:17;;;;;;;1.90;1.05;;;27.00;95.90;;;;;;5034150;28;20399;-71
2021/07/12 11:45:02;;;;;;;2.80;0.85;;;27.20;96.20;;;;;;5032590;28;20396;-72
2021/07/12 11:47:43;;;;;;;1.88;0.80;;;27.10;94.90;;;;;;5017620;28;20029;-72
2021/07/12 11:50:16;;;;;;;5.63;3.30;;;27.50;94.60;;;;;;5034064;28;20029;-71
2021/07/12 11:52:47;;;;;;;3.50;1.30;;;27.60;94.60;;;;;;5033886;28;20044;-71
2021/07/12 11:55:26;;;;;;;3.92;0.98;;;27.70;94.10;;;;;;5032559;28;20029;-70
2021/07/12 11:57:58;;;;;;;1.63;0.90;;;27.50;95.30;;;;;;5033529;28;20116;-71
2021/07/12 12:00:27;;;;;;;1.15;0.77;;;27.50;95.10;;;;;;5031840;28;20079;-71
2021/07/12 12:03:03;;;;;;;1.35;0.82;;;27.40;94.40;;;;;;5033663;28;20065;-72
2021/07/12 12:05:32;;;;;;;1.77;0.80;;;27.50;95.00;;;;;;5033379;28;20034;-71
2021/07/12 12:07:59;;;;;;;4.60;0.90;;;27.60;94.60;;;;;;5032378;28;20034;-71
2021/07/12 12:10:37;;;;;;;1.58;0.80;;;27.90;93.60;;;;;;5033734;28;20033;-71
2021/07/12 12:13:19;;;;;;;2.53;0.90;;;28.30;93.60;;;;;;5033169;28;20091;-71
2021/07/12 12:15:48;;;;;;;2.35;0.88;;;28.00;93.90;;;;;;5033118;28;20482;-71
2021/07/12 12:18:18;;;;;;;2.35;0.88;;;28.20;92.90;;;;;;5033092;28;20389;-71
2021/07/12 12:20:50;;;;;;;1.50;0.90;;;28.40;92.90;;;;;;5033145;28;20493;-69
2021/07/12 12:23:21;;;;;;;1.70;0.80;;;28.50;92.80;;;;;;5033441;28;20117;-71
2021/07/12 12:26:05;;;;;;;3.72;0.90;;;28.40;93.30;;;;;;5033341;28;20174;-71
2021/07/12 12:28:44;;;;;;;1.27;0.70;;;28.20;92.70;;;;;;5033443;28;20068;-72
2021/07/12 12:31:16;;;;;;;3.80;1.00;;;28.20;92.60;;;;;;5033232;28;20056;-72
2021/07/12 12:34:03;;;;;;;3.20;0.75;;;28.40;93.10;;;;;;5015132;28;20482;-72
2021/07/12 12:36:38;;;;;;;2.75;1.20;;;29.00;92.00;;;;;;5032843;28;20060;-72
2021/07/12 12:39:09;;;;;;;1.98;0.93;;;29.70;90.80;;;;;;5031942;28;20057;-72
2021/07/12 12:41:57;;;;;;;1.90;0.80;;;29.50;90.50;;;;;;5032963;28;20037;-72
2021/07/12 12:44:36;;;;;;;2.85;0.80;;;29.60;90.40;;;;;;5032785;28;20051;-72
2021/07/12 12:47:01;;;;;;;2.15;0.90;;;29.70;90.50;;;;;;5031510;28;20436;-72
2021/07/12 12:49:30;;;;;;;1.77;0.75;;;29.60;89.90;;;;;;5032922;28;20025;-73
2021/07/12 12:52:00;;;;;;;1.35;0.70;;;29.60;90.60;;;;;;5032718;28;20120;-71
2021/07/12 12:54:35;;;;;;;1.55;0.75;;;30.00;90.00;;;;;;5032566;28;20029;-72
2021/07/12 12:57:04;;;;;;;1.10;0.80;;;29.80;88.50;;;;;;5032626;28;20067;-72
2021/07/12 12:59:38;;;;;;;1.83;0.88;;;29.90;87.80;;;;;;5032730;28;20079;-72
2021/07/12 13:02:10;;;;;;;1.45;0.90;;;29.90;88.10;;;;;;5031156;28;20478;-71
2021/07/12 13:05:07;;;;;;;2.58;0.90;;;29.70;88.30;;;;;;5031416;28;20595;-72